createdAt,value
2023-12-30T00:01:48.403Z,16.08
2023-12-30T00:04:16.048Z,16.08
2023-12-30T00:06:44.539Z,16.07
2023-12-30T00:09:12.133Z,16.08
2023-12-30T00:11:39.726Z,16.06
2023-12-30T00:14:07.402Z,16.04
2023-12-30T00:16:35.104Z,16.03
2023-12-30T00:19:04.096Z,16.03
2023-12-30T00:21:31.685Z,16.04
2023-12-30T00:23:59.324Z,16.02
2023-12-30T00:26:28.116Z,16.01
2023-12-30T00:28:55.737Z,15.99
2023-12-30T00:31:24.935Z,16.01
2023-12-30T00:33:53.598Z,16.01
2023-12-30T00:36:22.597Z,16.00
2023-12-30T00:38:50.427Z,15.97
2023-12-30T00:41:18.555Z,15.96
2023-12-30T00:43:46.149Z,15.97
2023-12-30T00:46:13.774Z,15.98
2023-12-30T00:48:41.487Z,15.97
2023-12-30T00:51:09.101Z,15.96
2023-12-30T00:53:38.019Z,15.94
2023-12-30T00:56:05.788Z,15.94
2023-12-30T00:58:33.399Z,15.95
2023-12-30T01:01:01.370Z,15.93
2023-12-30T01:03:29.033Z,15.92
2023-12-30T01:05:56.727Z,15.93
2023-12-30T01:08:24.370Z,15.91
2023-12-30T01:10:53.394Z,15.91
2023-12-30T01:13:21.080Z,15.92
2023-12-30T01:15:48.873Z,15.92
2023-12-30T01:18:16.701Z,15.89
2023-12-30T01:20:44.384Z,15.89
2023-12-30T01:23:12.052Z,15.88
2023-12-30T01:25:39.905Z,15.88
2023-12-30T01:28:09.068Z,15.88
2023-12-30T01:30:38.550Z,15.84
2023-12-30T01:33:07.522Z,15.85
2023-12-30T01:35:35.903Z,15.82
2023-12-30T01:38:06.018Z,15.83
2023-12-30T01:40:34.709Z,15.82
2023-12-30T01:43:04.310Z,15.80
2023-12-30T01:45:33.745Z,15.80
2023-12-30T01:48:03.217Z,15.78
2023-12-30T01:50:30.967Z,15.79
2023-12-30T01:52:58.715Z,15.81
2023-12-30T01:55:26.488Z,15.78
2023-12-30T01:57:54.180Z,15.77
2023-12-30T02:00:22.462Z,15.76
2023-12-30T02:02:51.668Z,15.77
2023-12-30T02:05:19.508Z,15.76
2023-12-30T02:07:48.217Z,15.74
2023-12-30T02:10:16.423Z,15.71
2023-12-30T02:12:45.670Z,15.71
2023-12-30T02:15:14.762Z,15.71
2023-12-30T02:17:42.829Z,15.69
2023-12-30T02:20:12.819Z,15.68
2023-12-30T02:22:45.232Z,15.67
2023-12-30T02:25:12.940Z,15.63
2023-12-30T02:27:40.594Z,15.62
2023-12-30T02:30:09.043Z,15.62
2023-12-30T02:32:36.695Z,15.59
2023-12-30T02:35:04.812Z,15.58
2023-12-30T02:37:32.625Z,15.58
2023-12-30T02:40:01.822Z,15.56
2023-12-30T02:42:29.435Z,15.55
2023-12-30T02:44:57.142Z,15.52
2023-12-30T02:47:24.773Z,15.51
2023-12-30T02:49:52.378Z,15.51
2023-12-30T02:52:20.029Z,15.49
2023-12-30T02:54:47.670Z,15.48
2023-12-30T02:57:16.677Z,15.48
2023-12-30T02:59:44.240Z,15.46
2023-12-30T03:02:11.933Z,15.45
2023-12-30T03:04:39.638Z,15.45
2023-12-30T03:07:07.431Z,15.44
2023-12-30T03:09:35.188Z,15.44
2023-12-30T03:12:03.475Z,15.44
2023-12-30T03:14:32.630Z,15.43
2023-12-30T03:17:00.254Z,15.42
2023-12-30T03:19:27.925Z,15.42
2023-12-30T03:21:55.766Z,15.44
2023-12-30T03:24:23.380Z,15.42
2023-12-30T03:26:54.371Z,15.41
2023-12-30T03:29:22.091Z,15.39
2023-12-30T03:31:51.063Z,15.41
2023-12-30T03:34:18.746Z,15.41
2023-12-30T03:36:46.365Z,15.38
2023-12-30T03:39:15.148Z,15.39
2023-12-30T03:41:42.719Z,15.38
2023-12-30T03:44:10.314Z,15.35
2023-12-30T03:46:39.441Z,15.36
2023-12-30T03:49:08.393Z,15.37
2023-12-30T03:51:36.085Z,15.37
2023-12-30T03:54:03.635Z,15.36
2023-12-30T03:56:32.754Z,15.33
2023-12-30T03:59:00.793Z,15.32
2023-12-30T04:01:28.631Z,15.33
2023-12-30T04:03:56.259Z,15.32
2023-12-30T04:06:25.296Z,15.30
2023-12-30T04:08:52.971Z,15.30
2023-12-30T04:11:20.690Z,15.30
2023-12-30T04:13:48.409Z,15.30
2023-12-30T04:16:16.155Z,15.31
2023-12-30T04:18:43.845Z,15.28
2023-12-30T04:21:11.462Z,15.30
2023-12-30T04:23:40.451Z,15.28
2023-12-30T04:26:08.053Z,15.26
2023-12-30T04:28:36.541Z,15.28
2023-12-30T04:31:04.385Z,15.27
2023-12-30T04:33:32.099Z,15.29
2023-12-30T04:35:59.750Z,15.27
2023-12-30T04:38:27.330Z,15.25
2023-12-30T04:40:56.786Z,15.26
2023-12-30T04:43:24.453Z,15.26
2023-12-30T04:45:52.137Z,15.23
2023-12-30T04:48:19.810Z,15.23
2023-12-30T04:50:47.428Z,15.23
2023-12-30T04:53:15.017Z,15.25
2023-12-30T04:55:43.176Z,15.24
2023-12-30T04:58:12.255Z,15.21
2023-12-30T05:00:40.171Z,15.20
2023-12-30T05:03:08.137Z,15.20
2023-12-30T05:05:36.140Z,15.18
2023-12-30T05:08:06.177Z,15.15
2023-12-30T05:10:34.867Z,15.14
2023-12-30T05:13:03.223Z,15.13
2023-12-30T05:15:32.549Z,15.13
2023-12-30T05:18:00.321Z,15.13
2023-12-30T05:20:28.269Z,15.12
2023-12-30T05:22:55.853Z,15.10
2023-12-30T05:25:23.518Z,15.08
2023-12-30T05:27:51.142Z,15.10
2023-12-30T05:30:18.944Z,15.07
2023-12-30T05:32:47.921Z,15.08
2023-12-30T05:35:15.810Z,15.08
2023-12-30T05:37:43.396Z,15.07
2023-12-30T05:40:12.150Z,15.04
2023-12-30T05:42:39.844Z,15.04
2023-12-30T05:45:08.823Z,15.04
2023-12-30T05:47:36.464Z,15.04
2023-12-30T05:50:07.035Z,15.00
2023-12-30T05:52:35.358Z,15.02
2023-12-30T05:55:03.423Z,15.02
2023-12-30T05:57:32.601Z,15.02
2023-12-30T06:00:00.815Z,14.97
2023-12-30T06:02:28.380Z,14.98
2023-12-30T06:04:56.007Z,14.97
2023-12-30T06:07:24.940Z,14.96
2023-12-30T06:09:52.578Z,14.96
2023-12-30T06:12:20.206Z,14.95
2023-12-30T06:14:47.801Z,14.94
2023-12-30T06:17:15.395Z,14.91
2023-12-30T06:19:43.063Z,14.92
2023-12-30T06:22:10.718Z,14.93
2023-12-30T06:24:39.687Z,14.92
2023-12-30T06:27:07.339Z,14.92
2023-12-30T06:29:34.925Z,14.91
2023-12-30T06:32:02.564Z,14.91
2023-12-30T06:34:30.191Z,14.89
2023-12-30T06:36:57.961Z,14.90
2023-12-30T06:39:25.695Z,14.90
2023-12-30T06:41:56.405Z,14.93
2023-12-30T06:44:26.742Z,15.02
2023-12-30T06:46:54.494Z,15.10
2023-12-30T06:49:22.443Z,15.20
2023-12-30T06:51:50.134Z,15.34
2023-12-30T06:54:17.728Z,15.49
2023-12-30T06:56:45.373Z,15.60
2023-12-30T06:59:15.892Z,15.74
2023-12-30T07:01:43.624Z,15.85
2023-12-30T07:04:11.372Z,15.97
2023-12-30T07:06:39.015Z,16.16
2023-12-30T07:09:08.201Z,16.23
2023-12-30T07:11:36.605Z,16.34
2023-12-30T07:14:04.268Z,16.46
2023-12-30T07:16:33.266Z,16.54
2023-12-30T07:19:01.005Z,16.61
2023-12-30T07:21:28.629Z,16.62
2023-12-30T07:23:56.223Z,16.68
2023-12-30T07:26:23.857Z,16.74
2023-12-30T07:28:51.454Z,16.78
2023-12-30T07:31:19.109Z,16.90
2023-12-30T07:33:48.197Z,16.84
2023-12-30T07:36:15.869Z,16.84
2023-12-30T07:38:43.436Z,16.89
2023-12-30T07:41:15.249Z,16.88
2023-12-30T07:43:42.891Z,16.93
2023-12-30T07:46:10.571Z,16.97
2023-12-30T07:48:38.244Z,16.99
2023-12-30T07:51:07.390Z,17.03
2023-12-30T07:53:34.950Z,17.05
2023-12-30T07:56:02.517Z,17.08
2023-12-30T07:58:30.120Z,17.15
2023-12-30T08:00:57.840Z,17.25
2023-12-30T08:03:25.520Z,17.34
2023-12-30T08:05:53.231Z,17.41
2023-12-30T08:08:22.196Z,17.45
2023-12-30T08:10:49.758Z,17.52
2023-12-30T08:13:17.703Z,17.53
2023-12-30T08:15:45.325Z,17.58
2023-12-30T08:18:13.301Z,17.59
2023-12-30T08:20:41.138Z,17.63
2023-12-30T08:23:08.775Z,17.63
2023-12-30T08:25:38.083Z,17.66
2023-12-30T08:28:05.906Z,17.64
2023-12-30T08:30:33.520Z,17.66
2023-12-30T08:33:05.580Z,17.72
2023-12-30T08:35:33.597Z,17.71
2023-12-30T08:38:01.192Z,17.73
2023-12-30T08:40:28.946Z,17.78
2023-12-30T08:42:57.936Z,17.79
2023-12-30T08:45:25.022Z,17.82
2023-12-30T08:47:53.538Z,17.84
2023-12-30T08:50:21.312Z,17.88
2023-12-30T08:52:48.881Z,17.96
2023-12-30T08:55:16.622Z,17.97
2023-12-30T08:57:44.340Z,17.99
2023-12-30T09:00:16.617Z,17.99
2023-12-30T09:02:47.988Z,18.00
2023-12-30T09:05:18.636Z,18.02
2023-12-30T09:07:46.400Z,18.01
2023-12-30T09:10:14.046Z,18.05
2023-12-30T09:12:41.638Z,18.00
2023-12-30T09:15:09.616Z,17.95
2023-12-30T09:17:38.775Z,17.92
2023-12-30T09:20:07.240Z,17.90
2023-12-30T09:22:35.042Z,17.88
2023-12-30T09:25:02.744Z,17.87
2023-12-30T09:27:30.402Z,17.87
2023-12-30T09:29:57.985Z,17.87
2023-12-30T09:32:25.647Z,17.84
2023-12-30T09:34:55.232Z,17.83
2023-12-30T09:37:23.267Z,17.84
2023-12-30T09:39:51.494Z,17.83
2023-12-30T09:42:19.094Z,17.81
2023-12-30T09:44:48.381Z,17.80
2023-12-30T09:47:16.156Z,17.79
2023-12-30T09:49:46.175Z,17.79
2023-12-30T09:52:15.583Z,17.76
2023-12-30T09:54:48.794Z,17.76
2023-12-30T09:57:17.890Z,17.77
2023-12-30T09:59:47.544Z,17.75
2023-12-30T10:02:15.910Z,17.75
2023-12-30T10:04:44.061Z,17.76
2023-12-30T10:07:12.928Z,17.76
2023-12-30T10:09:42.190Z,17.76
2023-12-30T10:12:10.676Z,17.76
2023-12-30T10:14:38.345Z,17.77
2023-12-30T10:17:06.070Z,17.76
2023-12-30T10:19:33.770Z,17.76
2023-12-30T10:22:01.480Z,17.75
2023-12-30T10:24:29.092Z,17.74
2023-12-30T10:27:04.205Z,17.73
2023-12-30T10:29:32.644Z,17.74
2023-12-30T10:32:05.037Z,17.75
2023-12-30T10:34:32.940Z,17.73
2023-12-30T10:37:01.670Z,17.72
2023-12-30T10:39:31.428Z,17.72
2023-12-30T10:42:00.369Z,17.70
2023-12-30T10:44:28.073Z,17.68
2023-12-30T10:46:57.927Z,17.68
2023-12-30T10:49:26.995Z,17.67
2023-12-30T10:51:56.350Z,17.66
2023-12-30T10:54:34.974Z,17.64
2023-12-30T10:57:10.796Z,17.63
2023-12-30T10:59:39.238Z,17.63
2023-12-30T11:02:08.639Z,17.60
2023-12-30T11:04:36.540Z,17.58
2023-12-30T11:07:07.653Z,17.56
2023-12-30T11:09:35.230Z,17.55
2023-12-30T11:12:07.026Z,17.54
2023-12-30T11:14:36.931Z,17.50
2023-12-30T11:17:05.342Z,17.48
2023-12-30T11:19:34.452Z,17.48
2023-12-30T11:22:03.381Z,17.47
2023-12-30T11:24:31.688Z,17.44
2023-12-30T11:26:59.691Z,17.43
2023-12-30T11:29:30.134Z,17.40
2023-12-30T11:31:59.952Z,17.39
2023-12-30T11:34:28.395Z,17.39
2023-12-30T11:37:00.488Z,17.37
2023-12-30T11:39:31.262Z,17.36
2023-12-30T11:41:59.615Z,17.39
2023-12-30T11:44:29.096Z,17.43
2023-12-30T11:46:57.613Z,17.42
2023-12-30T11:49:26.942Z,17.41
2023-12-30T11:52:03.462Z,17.40
2023-12-30T11:54:31.066Z,17.40
2023-12-30T11:56:58.931Z,17.40
2023-12-30T11:59:27.933Z,17.38
2023-12-30T12:02:07.387Z,17.37
2023-12-30T12:04:35.268Z,17.37
2023-12-30T12:07:02.947Z,17.34
2023-12-30T12:09:30.576Z,17.33
2023-12-30T12:11:58.197Z,17.32
2023-12-30T12:14:27.780Z,17.31
2023-12-30T12:16:55.418Z,17.31
2023-12-30T12:19:23.062Z,17.32
2023-12-30T12:21:50.728Z,17.28
2023-12-30T12:24:18.391Z,17.29
2023-12-30T12:26:46.051Z,17.27
2023-12-30T12:29:14.326Z,17.28
2023-12-30T12:31:48.217Z,17.27
2023-12-30T12:34:22.538Z,17.27
2023-12-30T12:36:50.410Z,17.28
2023-12-30T12:39:18.204Z,17.28
2023-12-30T12:41:47.390Z,17.21
2023-12-30T12:44:15.123Z,17.23
2023-12-30T12:46:42.838Z,17.20
2023-12-30T12:49:12.057Z,17.21
2023-12-30T12:51:40.372Z,17.20
2023-12-30T12:54:08.275Z,17.20
2023-12-30T12:56:36.314Z,17.22
2023-12-30T12:59:03.977Z,17.18
2023-12-30T13:01:31.825Z,17.20
2023-12-30T13:04:00.289Z,17.18
2023-12-30T13:06:29.517Z,17.15
2023-12-30T13:08:57.566Z,17.13
2023-12-30T13:11:28.361Z,17.15
2023-12-30T13:13:57.009Z,17.14
2023-12-30T13:16:25.075Z,17.14
2023-12-30T13:18:53.315Z,17.13
2023-12-30T13:21:21.304Z,17.12
2023-12-30T13:23:51.650Z,17.11
2023-12-30T13:26:19.833Z,17.10
2023-12-30T13:28:47.797Z,17.08
2023-12-30T13:31:19.262Z,17.08
2023-12-30T13:33:47.066Z,17.06
2023-12-30T13:36:14.758Z,17.04
2023-12-30T13:38:45.402Z,17.03
2023-12-30T13:41:15.562Z,17.01
2023-12-30T13:43:44.847Z,17.01
2023-12-30T13:46:33.696Z,16.98
2023-12-30T13:49:32.576Z,16.96
2023-12-30T13:52:02.357Z,16.96
2023-12-30T13:54:30.162Z,16.95
2023-12-30T13:57:12.445Z,16.95
2023-12-30T13:59:44.158Z,16.98
2023-12-30T14:02:12.231Z,16.95
2023-12-30T14:04:41.440Z,16.97
2023-12-30T14:07:16.515Z,17.03
2023-12-30T14:09:50.890Z,17.07
2023-12-30T14:12:20.892Z,17.12
2023-12-30T14:14:54.465Z,17.20
2023-12-30T14:17:23.593Z,17.31
2023-12-30T14:19:51.298Z,17.37
2023-12-30T14:22:20.048Z,17.43
2023-12-30T14:24:47.877Z,17.47
2023-12-30T14:27:15.732Z,17.58
2023-12-30T14:29:46.918Z,17.62
2023-12-30T14:32:15.389Z,17.64
2023-12-30T14:34:43.329Z,17.67
2023-12-30T14:37:11.233Z,17.68
2023-12-30T14:39:39.043Z,17.67
2023-12-30T14:42:07.107Z,17.69
2023-12-30T14:44:34.995Z,17.70
2023-12-30T14:47:04.297Z,17.72
2023-12-30T14:49:32.036Z,17.72
2023-12-30T14:51:59.796Z,17.74
2023-12-30T14:54:27.454Z,17.74
2023-12-30T14:56:55.376Z,17.73
2023-12-30T14:59:23.443Z,17.72
2023-12-30T15:01:52.265Z,17.73
2023-12-30T15:04:22.506Z,17.73
2023-12-30T15:06:50.173Z,17.70
2023-12-30T15:09:18.257Z,17.72
2023-12-30T15:11:46.609Z,17.71
2023-12-30T15:14:14.243Z,17.68
2023-12-30T15:16:41.893Z,17.68
2023-12-30T15:19:09.580Z,17.68
2023-12-30T15:21:38.772Z,17.65
2023-12-30T15:24:07.292Z,17.68
2023-12-30T15:26:34.868Z,17.67
2023-12-30T15:29:02.756Z,17.68
2023-12-30T15:31:30.932Z,17.65
2023-12-30T15:33:58.879Z,17.65
2023-12-30T15:36:26.644Z,17.62
2023-12-30T15:38:56.430Z,17.61
2023-12-30T15:41:24.144Z,17.61
2023-12-30T15:43:51.836Z,17.61
2023-12-30T15:46:19.613Z,17.61
2023-12-30T15:48:47.335Z,17.56
2023-12-30T15:51:15.092Z,17.57
2023-12-30T15:53:42.769Z,17.56
2023-12-30T15:56:11.800Z,17.53
2023-12-30T15:58:39.834Z,17.48
2023-12-30T16:01:23.375Z,17.48
2023-12-30T16:03:55.136Z,17.49
2023-12-30T16:06:22.764Z,17.54
2023-12-30T16:08:50.518Z,17.62
2023-12-30T16:11:19.510Z,17.67
2023-12-30T16:13:47.181Z,17.73
2023-12-30T16:16:17.271Z,17.79
2023-12-30T16:18:45.023Z,17.89
2023-12-30T16:21:13.186Z,17.91
2023-12-30T16:23:40.946Z,17.98
2023-12-30T16:26:09.991Z,18.01
2023-12-30T16:28:40.472Z,18.02
2023-12-30T16:31:08.255Z,18.08
2023-12-30T16:33:41.482Z,18.09
2023-12-30T16:36:09.633Z,18.11
2023-12-30T16:38:38.009Z,18.10
2023-12-30T16:41:05.908Z,18.10
2023-12-30T16:43:34.997Z,18.13
2023-12-30T16:46:04.483Z,18.08
2023-12-30T16:48:32.158Z,18.07
2023-12-30T16:50:59.789Z,18.06
2023-12-30T16:53:27.339Z,18.07
2023-12-30T16:55:54.960Z,18.09
2023-12-30T16:58:24.346Z,18.06
2023-12-30T17:03:22.675Z,18.06
2023-12-30T17:05:50.291Z,18.05
2023-12-30T17:08:17.851Z,18.03
2023-12-30T17:10:45.451Z,18.05
2023-12-30T17:13:13.082Z,18.05
2023-12-30T17:15:41.850Z,18.06
2023-12-30T17:18:10.135Z,18.04
2023-12-30T17:20:39.349Z,18.01
2023-12-30T17:23:08.336Z,18.03
2023-12-30T17:25:36.064Z,18.02
2023-12-30T17:28:04.025Z,18.02
2023-12-30T17:30:31.674Z,17.98
2023-12-30T17:32:59.411Z,17.97
2023-12-30T17:35:28.175Z,17.98
2023-12-30T17:37:57.450Z,17.97
2023-12-30T17:40:25.286Z,17.96
2023-12-30T17:42:52.915Z,17.97
2023-12-30T17:45:20.486Z,17.95
2023-12-30T17:47:50.579Z,17.96
2023-12-30T17:50:18.475Z,17.95
2023-12-30T17:52:46.355Z,17.94
2023-12-30T17:55:16.044Z,17.92
2023-12-30T17:57:44.190Z,17.90
2023-12-30T18:00:13.259Z,17.91
2023-12-30T18:02:40.940Z,17.89
2023-12-30T18:05:09.235Z,17.84
2023-12-30T18:07:39.162Z,17.84
2023-12-30T18:10:07.282Z,17.80
2023-12-30T18:12:37.625Z,17.79
2023-12-30T18:15:06.101Z,17.76
2023-12-30T18:17:33.976Z,17.76
2023-12-30T18:20:01.778Z,17.76
2023-12-30T18:22:29.913Z,17.70
2023-12-30T18:24:58.036Z,17.71
2023-12-30T18:27:25.622Z,17.69
2023-12-30T18:29:54.626Z,17.66
2023-12-30T18:32:22.241Z,17.66
2023-12-30T18:34:49.837Z,17.63
2023-12-30T18:37:17.678Z,17.62
2023-12-30T18:39:45.323Z,17.59
2023-12-30T18:42:12.941Z,17.58
2023-12-30T18:44:40.897Z,17.57
2023-12-30T18:47:09.803Z,17.56
2023-12-30T18:49:37.474Z,17.52
2023-12-30T18:52:05.496Z,17.53
2023-12-30T18:54:33.084Z,17.50
2023-12-30T18:57:00.660Z,17.47
2023-12-30T18:59:28.733Z,17.47
2023-12-30T19:01:56.527Z,17.45
2023-12-30T19:04:25.583Z,17.44
2023-12-30T19:06:53.203Z,17.41
2023-12-30T19:09:20.767Z,17.41
2023-12-30T19:11:48.371Z,17.40
2023-12-30T19:14:16.109Z,17.40
2023-12-30T19:16:43.778Z,17.38
2023-12-30T19:19:11.421Z,17.35
2023-12-30T19:21:40.683Z,17.33
2023-12-30T19:24:09.593Z,17.32
2023-12-30T19:26:37.622Z,17.31
2023-12-30T19:29:05.738Z,17.29
2023-12-30T19:31:33.335Z,17.29
2023-12-30T19:34:00.928Z,17.29
2023-12-30T19:36:28.919Z,17.29
2023-12-30T19:38:57.984Z,17.25
2023-12-30T19:41:25.673Z,17.24
2023-12-30T19:43:53.388Z,17.22
2023-12-30T19:46:21.127Z,17.21
2023-12-30T19:48:49.753Z,17.18
2023-12-30T19:51:17.457Z,17.18
2023-12-30T19:53:45.261Z,17.16
2023-12-30T19:56:14.535Z,17.13
2023-12-30T19:58:42.212Z,17.11
2023-12-30T20:01:16.501Z,17.11
2023-12-30T20:03:44.458Z,17.08
2023-12-30T20:06:12.422Z,17.06
2023-12-30T20:08:40.279Z,17.05
2023-12-30T20:11:09.468Z,17.04
2023-12-30T20:13:40.166Z,17.01
2023-12-30T20:16:08.874Z,17.00
2023-12-30T20:18:38.401Z,16.96
2023-12-30T20:21:06.992Z,16.96
2023-12-30T20:23:35.836Z,16.93
2023-12-30T20:26:04.803Z,16.91
2023-12-30T20:28:32.455Z,16.90
2023-12-30T20:31:04.654Z,16.88
2023-12-30T20:33:32.560Z,16.86
2023-12-30T20:36:00.190Z,16.85
2023-12-30T20:38:27.766Z,16.82
2023-12-30T20:40:55.440Z,16.79
2023-12-30T20:43:23.121Z,16.77
2023-12-30T20:45:50.831Z,16.75
2023-12-30T20:48:19.960Z,16.75
2023-12-30T20:50:47.691Z,16.73
2023-12-30T20:53:17.188Z,16.72
2023-12-30T20:55:44.876Z,16.70
2023-12-30T20:58:12.502Z,16.66
2023-12-30T21:00:40.644Z,16.66
2023-12-30T21:03:08.259Z,16.65
2023-12-30T21:05:38.049Z,16.62
2023-12-30T21:08:06.125Z,16.61
2023-12-30T21:10:33.699Z,16.60
2023-12-30T21:13:01.518Z,16.58
2023-12-30T21:15:29.321Z,16.56
2023-12-30T21:17:57.009Z,16.56
2023-12-30T21:20:24.614Z,16.54
2023-12-30T21:22:55.959Z,16.51
2023-12-30T21:25:27.351Z,16.50
2023-12-30T21:27:55.507Z,16.48
2023-12-30T21:30:25.054Z,16.47
2023-12-30T21:32:53.343Z,16.44
2023-12-30T21:35:21.042Z,16.44
2023-12-30T21:37:48.961Z,16.41
2023-12-30T21:40:20.326Z,16.40
2023-12-30T21:42:48.040Z,16.40
2023-12-30T21:45:15.820Z,16.38
2023-12-30T21:47:43.453Z,16.37
2023-12-30T21:50:11.588Z,16.37
2023-12-30T21:52:39.645Z,16.36
2023-12-30T21:55:08.093Z,16.33
2023-12-30T21:57:37.063Z,16.30
2023-12-30T22:00:05.837Z,16.30
2023-12-30T22:02:35.029Z,16.29
2023-12-30T22:05:02.960Z,16.28
2023-12-30T22:07:30.591Z,16.26
2023-12-30T22:09:58.402Z,16.24
2023-12-30T22:12:31.605Z,16.23
2023-12-30T22:15:00.784Z,16.21
2023-12-30T22:17:28.558Z,16.19
2023-12-30T22:19:57.425Z,16.18
2023-12-30T22:22:25.129Z,16.16
2023-12-30T22:24:52.732Z,16.16
2023-12-30T22:27:21.470Z,16.15
2023-12-30T22:29:49.110Z,16.12
2023-12-30T22:32:18.013Z,16.11
2023-12-30T22:34:45.683Z,16.07
2023-12-30T22:37:13.349Z,16.06
2023-12-30T22:39:40.934Z,16.05
2023-12-30T22:42:08.824Z,16.04
2023-12-30T22:44:38.556Z,16.03
2023-12-30T22:47:06.737Z,16.01
2023-12-30T22:49:35.653Z,16.00
2023-12-30T22:52:03.381Z,16.00
2023-12-30T22:54:31.003Z,15.98
2023-12-30T22:56:58.585Z,15.98
2023-12-30T22:59:26.152Z,15.96
2023-12-30T23:01:53.754Z,15.95
2023-12-30T23:04:21.445Z,15.93
2023-12-30T23:06:50.387Z,15.90
2023-12-30T23:09:20.070Z,15.88
2023-12-30T23:11:48.502Z,15.87
2023-12-30T23:14:16.446Z,15.84
2023-12-30T23:16:45.615Z,15.81
2023-12-30T23:19:13.341Z,15.82
2023-12-30T23:21:40.927Z,15.80
2023-12-30T23:24:09.877Z,15.79
2023-12-30T23:26:37.608Z,15.76
2023-12-30T23:29:05.222Z,15.75
2023-12-30T23:31:32.834Z,15.72
2023-12-30T23:34:00.620Z,15.72
2023-12-30T23:36:28.274Z,15.70
2023-12-30T23:38:55.844Z,15.69
2023-12-30T23:41:24.755Z,15.67
2023-12-30T23:43:53.440Z,15.66
2023-12-30T23:46:21.074Z,15.65
2023-12-30T23:48:48.722Z,15.64
2023-12-30T23:51:16.382Z,15.63
2023-12-30T23:53:43.994Z,15.62
2023-12-30T23:56:11.802Z,15.60
2023-12-30T23:58:40.737Z,15.59
